Time;durP1;ratioP1;P1;durP2;ratioP2;P2;SDS_P1;SDS_P2;PMS_P1;PMS_P2;Temp;Humidity;BMP_temperature;BMP_pressure;BME280_temperature;BME280_humidity;BME280_pressure;Samples;Min_cycle;Max_cycle;Signal;HPM_P1;HPM_P2
2022/05/24 00:00:47;;;;;;;11.93;11.03;;;17.20;99.90;;;;;;6227590;23;20446;-82
2022/05/24 00:03:15;;;;;;;11.00;10.17;;;17.10;99.90;;;;;;6199186;23;20417;-82
2022/05/24 00:05:45;;;;;;;10.97;10.17;;;17.00;99.90;;;;;;6227760;23;20757;-81
2022/05/24 00:08:13;;;;;;;11.80;10.90;;;17.00;99.90;;;;;;6199545;23;20415;-81
2022/05/24 00:10:48;;;;;;;12.03;11.10;;;16.90;99.90;;;;;;6201374;23;20426;-81
2022/05/24 00:13:16;;;;;;;11.23;10.33;;;16.90;99.90;;;;;;6200995;23;20430;-82
2022/05/24 00:15:44;;;;;;;12.37;11.40;;;16.80;99.90;;;;;;6236532;23;20377;-82
2022/05/24 00:18:14;;;;;;;12.83;11.83;;;16.80;99.90;;;;;;6199841;23;20442;-81
2022/05/24 00:20:47;;;;;;;11.80;10.70;;;16.70;99.90;;;;;;6199526;23;20959;-81
2022/05/24 00:23:16;;;;;;;11.73;10.83;;;16.70;99.90;;;;;;6200075;23;20478;-82
2022/05/24 00:25:47;;;;;;;13.10;12.00;;;16.60;99.90;;;;;;6199368;23;20929;-82
2022/05/24 00:28:16;;;;;;;12.00;11.10;;;16.60;99.90;;;;;;6199209;23;20450;-82
2022/05/24 00:30:46;;;;;;;13.17;12.10;;;16.50;99.90;;;;;;6227520;23;20402;-82
2022/05/24 00:33:15;;;;;;;13.97;12.83;;;16.50;99.90;;;;;;6197287;23;20428;-82
2022/05/24 00:35:46;;;;;;;14.20;12.93;;;16.40;99.90;;;;;;6234459;23;20370;-82
2022/05/24 00:38:20;;;;;;;15.30;14.00;;;16.40;99.90;;;;;;6199568;23;20473;-81
2022/05/24 00:40:54;;;;;;;14.90;13.73;;;16.40;99.90;;;;;;6224697;23;20366;-82
2022/05/24 00:43:27;;;;;;;17.00;15.60;;;16.30;99.90;;;;;;6194575;23;20449;-82
2022/05/24 00:46:00;;;;;;;15.67;14.40;;;16.30;99.90;;;;;;6195589;23;20385;-81
2022/05/24 00:48:35;;;;;;;16.10;14.77;;;16.30;99.90;;;;;;6199429;23;20893;-81
2022/05/24 00:51:08;;;;;;;15.83;14.63;;;16.20;99.90;;;;;;6198243;23;20465;-81
2022/05/24 00:53:41;;;;;;;16.20;14.90;;;16.20;99.90;;;;;;6197686;23;20434;-82
2022/05/24 00:56:15;;;;;;;16.10;14.80;;;16.20;99.90;;;;;;6235172;23;20378;-82
2022/05/24 00:58:49;;;;;;;15.80;14.50;;;16.20;99.90;;;;;;6222469;23;20418;-82
2022/05/24 01:01:29;;;;;;;16.20;14.80;;;16.20;99.90;;;;;;6197381;23;20418;-82
2022/05/24 01:03:58;;;;;;;15.07;13.87;;;16.20;99.90;;;;;;6196456;23;20444;-82
2022/05/24 01:06:29;;;;;;;14.77;13.47;;;16.10;99.90;;;;;;6198101;23;20394;-82
2022/05/24 01:09:02;;;;;;;14.87;13.47;;;16.10;99.90;;;;;;6198712;23;20452;-82
2022/05/24 01:11:31;;;;;;;14.00;12.70;;;16.10;99.90;;;;;;6197672;23;20440;-81
2022/05/24 01:14:00;;;;;;;14.93;13.53;;;16.10;99.90;;;;;;6195509;23;20473;-82
2022/05/24 01:16:29;;;;;;;15.30;14.00;;;16.10;99.90;;;;;;6194543;23;20423;-81
2022/05/24 01:18:59;;;;;;;14.13;12.93;;;16.00;99.90;;;;;;6200429;23;20758;-81
2022/05/24 01:21:28;;;;;;;14.43;13.23;;;16.00;99.90;;;;;;6235948;23;20400;-82
2022/05/24 01:24:06;;;;;;;12.73;11.73;;;16.00;99.90;;;;;;6200022;23;20705;-82
2022/05/24 01:26:45;;;;;;;12.23;11.23;;;16.00;99.90;;;;;;6197975;23;20731;-82
2022/05/24 01:29:14;;;;;;;13.63;12.50;;;16.00;99.90;;;;;;6198697;23;20870;-82
2022/05/24 01:37:18;;;;;;;11.33;10.23;;;15.90;99.90;;;;;;6197661;23;20415;-82
2022/05/24 01:39:51;;;;;;;11.27;10.37;;;15.90;99.90;;;;;;6195827;23;20389;-82
2022/05/24 01:42:22;;;;;;;10.90;9.90;;;15.90;99.90;;;;;;6196155;23;20434;-82
2022/05/24 01:44:54;;;;;;;10.67;9.77;;;15.90;99.90;;;;;;6234924;23;20371;-82
2022/05/24 01:47:24;;;;;;;10.80;9.80;;;15.90;99.90;;;;;;6197185;23;20769;-82
2022/05/24 01:49:56;;;;;;;10.47;9.57;;;15.80;99.90;;;;;;6231387;23;20399;-82
2022/05/24 01:52:31;;;;;;;9.00;8.20;;;15.90;99.90;;;;;;6194817;23;20469;-82
2022/05/24 01:55:05;;;;;;;10.10;9.20;;;15.80;99.90;;;;;;6194009;23;20443;-82
2022/05/24 01:57:39;;;;;;;10.83;9.93;;;15.80;99.90;;;;;;6194410;23;20487;-82
2022/05/24 02:00:10;;;;;;;9.67;8.77;;;15.80;99.90;;;;;;6193571;23;20480;-81
2022/05/24 02:02:46;;;;;;;9.30;8.37;;;15.80;99.90;;;;;;6196393;23;20413;-82
2022/05/24 02:05:28;;;;;;;9.13;8.33;;;15.80;99.90;;;;;;6198541;23;20415;-82
2022/05/24 02:07:56;;;;;;;8.80;8.10;;;15.80;99.90;;;;;;6202440;23;20806;-82
2022/05/24 02:10:25;;;;;;;10.60;8.57;;;15.80;99.90;;;;;;6205336;23;20421;-82
2022/05/24 02:12:57;;;;;;;9.17;7.50;;;15.70;99.90;;;;;;6200499;23;20481;-82
2022/05/24 02:15:31;;;;;;;9.77;7.90;;;15.80;99.90;;;;;;6221507;23;20366;-82
2022/05/24 02:18:05;;;;;;;8.67;7.90;;;15.70;99.90;;;;;;6197265;23;20499;-82
2022/05/24 02:20:36;;;;;;;9.30;8.40;;;15.70;99.90;;;;;;6197145;23;20377;-82
2022/05/24 02:23:08;;;;;;;11.00;8.90;;;15.70;99.90;;;;;;6202855;23;20445;-82
2022/05/24 02:25:40;;;;;;;8.93;8.13;;;15.70;99.90;;;;;;6235808;23;20433;-81
2022/05/24 02:28:11;;;;;;;8.20;7.40;;;15.70;99.90;;;;;;6240226;23;20354;-82
2022/05/24 02:30:43;;;;;;;8.80;8.10;;;15.70;99.90;;;;;;6231097;23;20430;-83
2022/05/24 02:33:11;;;;;;;9.20;8.10;;;15.70;99.90;;;;;;6204216;23;20469;-83
2022/05/24 02:35:40;;;;;;;8.50;7.70;;;15.60;99.90;;;;;;6206233;23;20418;-82
2022/05/24 02:38:08;;;;;;;8.20;7.27;;;15.60;99.90;;;;;;6205429;23;20416;-82
2022/05/24 02:43:23;;;;;;;9.00;8.10;;;15.60;99.90;;;;;;6161617;23;20478;-82
2022/05/24 02:45:52;;;;;;;8.27;7.57;;;15.60;99.90;;;;;;6242251;23;20897;-82
2022/05/24 02:48:20;;;;;;;9.53;7.33;;;15.50;99.90;;;;;;6205540;23;20460;-82
2022/05/24 02:50:49;;;;;;;8.83;7.93;;;15.50;99.90;;;;;;6241471;23;20779;-82
2022/05/24 02:53:17;;;;;;;9.13;8.23;;;15.50;99.90;;;;;;6204102;23;20499;-82
2022/05/24 02:55:45;;;;;;;9.17;8.47;;;15.50;99.90;;;;;;6203695;23;20425;-82
2022/05/24 02:58:13;;;;;;;9.70;8.77;;;15.50;99.90;;;;;;6203949;23;20421;-82
2022/05/24 03:00:44;;;;;;;8.60;7.90;;;15.50;99.90;;;;;;6240952;23;20395;-82
2022/05/24 03:03:12;;;;;;;8.47;7.77;;;15.50;99.90;;;;;;6240829;23;20439;-81
2022/05/24 03:05:40;;;;;;;9.23;8.43;;;15.50;99.90;;;;;;6203089;23;20443;-82
2022/05/24 03:10:55;;;;;;;10.80;9.80;;;15.40;99.90;;;;;;6202841;23;20393;-82
2022/05/24 03:16:13;;;;;;;10.20;9.30;;;15.40;99.90;;;;;;6197042;23;20976;-82
2022/05/24 03:18:42;;;;;;;9.40;8.60;;;15.40;99.90;;;;;;6201180;23;20399;-82
2022/05/24 03:21:10;;;;;;;10.90;9.80;;;15.40;99.90;;;;;;6228894;23;20402;-82
2022/05/24 03:23:39;;;;;;;9.73;8.93;;;15.40;99.90;;;;;;6202111;23;20446;-82
2022/05/24 03:26:08;;;;;;;10.40;9.47;;;15.40;99.90;;;;;;6201841;23;20464;-81
2022/05/24 03:28:37;;;;;;;9.43;8.63;;;15.40;99.90;;;;;;6200471;23;20415;-81
2022/05/24 03:31:07;;;;;;;10.70;9.77;;;15.40;99.90;;;;;;6200227;23;20419;-81
2022/05/24 03:33:38;;;;;;;11.23;10.10;;;15.30;99.90;;;;;;6203401;23;20442;-82
2022/05/24 03:36:07;;;;;;;9.10;8.30;;;15.30;99.90;;;;;;6200458;23;20413;-82
2022/05/24 03:38:35;;;;;;;12.70;11.50;;;15.30;99.90;;;;;;6198589;23;20393;-82
2022/05/24 03:41:04;;;;;;;11.10;9.97;;;15.30;99.90;;;;;;6197140;23;20452;-82
2022/05/24 03:43:32;;;;;;;10.67;9.67;;;15.30;99.90;;;;;;6197247;23;20933;-82
2022/05/24 03:46:02;;;;;;;10.77;9.77;;;15.20;99.90;;;;;;6198672;23;20459;-82
2022/05/24 03:48:31;;;;;;;11.03;10.03;;;15.20;99.90;;;;;;6225975;23;20399;-82
2022/05/24 03:51:02;;;;;;;10.37;9.37;;;15.20;99.90;;;;;;6197355;23;20464;-82
2022/05/24 03:53:30;;;;;;;11.50;10.40;;;15.20;99.90;;;;;;6199353;23;20446;-82
2022/05/24 03:55:58;;;;;;;11.47;10.47;;;15.20;99.90;;;;;;6236473;23;20874;-82
2022/05/24 03:58:26;;;;;;;11.40;10.40;;;15.20;99.90;;;;;;6196580;23;20429;-82
2022/05/24 04:00:54;;;;;;;11.20;10.30;;;15.10;99.90;;;;;;6222658;23;20429;-82
2022/05/24 04:03:23;;;;;;;11.20;10.30;;;15.10;99.90;;;;;;6232489;23;20401;-82
2022/05/24 04:05:51;;;;;;;11.60;10.60;;;15.10;99.90;;;;;;6195766;23;20449;-82
2022/05/24 04:08:26;;;;;;;11.10;10.20;;;15.10;99.90;;;;;;6196614;23;20414;-82
2022/05/24 04:11:03;;;;;;;11.23;10.23;;;15.10;99.90;;;;;;6222826;23;20414;-82
2022/05/24 04:13:32;;;;;;;12.50;11.47;;;15.10;99.90;;;;;;6196974;23;20437;-82
2022/05/24 04:16:01;;;;;;;11.93;10.93;;;15.10;99.90;;;;;;6224313;23;20755;-82
2022/05/24 04:18:30;;;;;;;11.77;10.77;;;15.10;99.90;;;;;;6236853;23;20403;-82
2022/05/24 04:20:58;;;;;;;12.53;11.23;;;15.00;99.90;;;;;;6198400;23;20756;-82
2022/05/24 04:23:28;;;;;;;11.97;11.07;;;15.00;99.90;;;;;;6198223;23;20444;-82
2022/05/24 04:25:56;;;;;;;13.03;11.83;;;15.10;99.90;;;;;;6198271;23;20429;-82
2022/05/24 04:28:25;;;;;;;11.40;10.27;;;15.10;99.90;;;;;;6198309;23;20422;-82
2022/05/24 04:30:56;;;;;;;12.30;11.20;;;15.10;99.90;;;;;;6198046;23;20402;-82
2022/05/24 04:33:24;;;;;;;12.20;11.00;;;15.10;99.90;;;;;;6198269;23;20463;-82
2022/05/24 04:35:55;;;;;;;12.50;11.47;;;15.10;99.90;;;;;;6233510;23;20746;-82
2022/05/24 04:38:25;;;;;;;13.00;11.07;;;15.10;99.90;;;;;;6199027;23;20763;-82
2022/05/24 04:43:42;;;;;;;11.93;10.80;;;15.10;99.90;;;;;;6137902;23;20552;-82
2022/05/24 04:46:12;;;;;;;13.30;12.20;;;15.20;99.90;;;;;;6199451;23;20422;-82
2022/05/24 04:48:41;;;;;;;13.27;12.07;;;15.20;99.90;;;;;;6198931;23;20514;-82
2022/05/24 04:51:09;;;;;;;13.57;12.27;;;15.20;99.90;;;;;;6196975;23;20441;-82
2022/05/24 04:53:38;;;;;;;14.90;13.50;;;15.20;99.90;;;;;;6196439;23;20620;-82
2022/05/24 04:56:08;;;;;;;14.07;12.77;;;15.20;99.90;;;;;;6197164;23;20415;-82
2022/05/24 04:58:38;;;;;;;14.50;13.10;;;15.20;99.90;;;;;;6198225;23;20425;-82
2022/05/24 05:01:06;;;;;;;17.40;15.90;;;15.30;99.90;;;;;;6233284;23;20402;-82
2022/05/24 05:03:35;;;;;;;15.60;14.30;;;15.30;99.90;;;;;;6196462;23;20439;-82
2022/05/24 05:06:07;;;;;;;14.80;13.50;;;15.30;99.90;;;;;;6197690;23;20501;-82
2022/05/24 05:08:36;;;;;;;15.90;14.50;;;15.30;99.90;;;;;;6222774;23;20920;-81
2022/05/24 05:11:04;;;;;;;15.47;14.07;;;15.40;99.90;;;;;;6234968;23;20459;-82
2022/05/24 05:13:33;;;;;;;15.67;14.27;;;15.40;99.90;;;;;;6198044;23;20508;-82
2022/05/24 05:16:01;;;;;;;15.57;14.23;;;15.40;99.90;;;;;;6196292;23;20421;-82
2022/05/24 05:18:30;;;;;;;15.43;13.93;;;15.40;99.90;;;;;;6199064;23;20438;-82
2022/05/24 05:20:58;;;;;;;15.97;14.57;;;15.50;99.90;;;;;;6197406;23;20438;-82
2022/05/24 05:23:27;;;;;;;16.07;14.67;;;15.50;99.90;;;;;;6196612;23;20442;-82
2022/05/24 05:25:55;;;;;;;15.80;14.30;;;15.50;99.90;;;;;;6234591;23;20434;-82
2022/05/24 05:28:23;;;;;;;17.53;15.83;;;15.60;99.90;;;;;;6233658;23;20368;-82
2022/05/24 05:33:39;;;;;;;17.67;16.07;;;15.60;99.90;;;;;;6196888;23;20441;-82
2022/05/24 05:36:07;;;;;;;16.57;15.10;;;15.60;99.90;;;;;;6196980;23;20761;-82
2022/05/24 05:38:36;;;;;;;17.93;15.73;;;15.70;99.90;;;;;;6243354;23;20394;-82
2022/05/24 05:41:05;;;;;;;17.03;15.63;;;15.60;99.90;;;;;;6239123;23;20418;-82
2022/05/24 05:43:33;;;;;;;19.20;17.53;;;15.70;99.90;;;;;;6202653;23;20428;-82
2022/05/24 05:46:07;;;;;;;18.83;17.03;;;15.70;99.90;;;;;;6228179;23;20427;-82
2022/05/24 05:48:37;;;;;;;18.37;16.50;;;15.80;99.90;;;;;;6234145;23;20759;-82
2022/05/24 05:51:07;;;;;;;20.23;18.30;;;15.80;99.90;;;;;;6234308;23;20470;-82
2022/05/24 05:53:35;;;;;;;21.33;19.23;;;15.80;99.90;;;;;;6234876;23;20449;-82
2022/05/24 05:56:05;;;;;;;20.37;18.47;;;15.80;99.90;;;;;;6197463;23;20881;-82
2022/05/24 05:58:33;;;;;;;20.73;18.83;;;15.90;99.90;;;;;;6225970;23;20443;-82
2022/05/24 06:01:02;;;;;;;20.30;18.70;;;15.90;99.90;;;;;;6199816;23;20446;-82
2022/05/24 06:03:31;;;;;;;20.97;19.07;;;16.00;99.90;;;;;;6198990;23;20434;-82
2022/05/24 06:06:04;;;;;;;23.80;20.40;;;16.00;99.90;;;;;;6199438;23;20431;-82
2022/05/24 06:08:32;;;;;;;21.73;19.63;;;16.00;99.90;;;;;;6200408;23;20494;-82
2022/05/24 06:11:00;;;;;;;21.70;19.80;;;16.00;99.90;;;;;;6199262;23;20430;-82
2022/05/24 06:13:29;;;;;;;23.97;21.67;;;16.10;99.90;;;;;;6201604;23;20401;-83
2022/05/24 06:15:59;;;;;;;24.47;22.17;;;16.10;99.90;;;;;;6227431;23;20414;-82
2022/05/24 06:18:28;;;;;;;23.20;21.03;;;16.10;99.90;;;;;;6199532;23;20389;-82
2022/05/24 06:20:57;;;;;;;23.03;21.00;;;16.10;99.90;;;;;;6196467;23;20492;-82
2022/05/24 06:23:28;;;;;;;22.97;20.73;;;16.20;99.90;;;;;;6197282;23;20517;-82
2022/05/24 06:25:57;;;;;;;25.03;22.63;;;16.20;99.90;;;;;;6198338;23;21016;-82
2022/05/24 06:28:26;;;;;;;24.57;22.10;;;16.20;99.90;;;;;;6199140;23;20416;-82
2022/05/24 06:30:54;;;;;;;23.53;21.30;;;16.30;99.90;;;;;;6201711;23;20390;-82
2022/05/24 06:33:23;;;;;;;23.93;21.73;;;16.30;99.90;;;;;;6202402;23;20413;-82
2022/05/24 06:35:51;;;;;;;25.73;23.27;;;16.30;99.90;;;;;;6199383;23;20413;-82
2022/05/24 06:38:21;;;;;;;25.23;22.87;;;16.40;99.90;;;;;;6201357;23;20424;-82
2022/05/24 06:40:49;;;;;;;25.23;22.93;;;16.40;99.90;;;;;;6242510;23;20403;-83
2022/05/24 06:43:18;;;;;;;23.23;21.10;;;16.50;99.90;;;;;;6205343;23;20465;-82
2022/05/24 06:45:46;;;;;;;25.30;23.00;;;16.50;99.90;;;;;;6241060;23;20397;-82
2022/05/24 06:48:14;;;;;;;25.07;22.67;;;16.50;99.90;;;;;;6204598;23;20411;-82
2022/05/24 06:50:43;;;;;;;24.17;21.77;;;16.50;99.90;;;;;;6229933;23;20386;-82
2022/05/24 06:53:11;;;;;;;24.17;21.97;;;16.50;99.90;;;;;;6202320;23;20484;-82
2022/05/24 06:55:41;;;;;;;25.20;22.73;;;16.50;99.90;;;;;;6239109;23;20474;-82
2022/05/24 06:58:09;;;;;;;25.17;22.77;;;16.50;99.90;;;;;;6202913;23;20482;-83
2022/05/24 07:03:27;;;;;;;25.67;23.37;;;16.60;99.90;;;;;;6199790;23;20438;-82
2022/05/24 07:05:55;;;;;;;25.67;23.37;;;16.60;99.90;;;;;;6226052;23;20405;-83
2022/05/24 07:08:24;;;;;;;27.03;24.63;;;16.70;99.90;;;;;;6227677;23;20381;-82
2022/05/24 07:10:54;;;;;;;26.30;23.97;;;16.90;99.90;;;;;;6226574;23;20385;-82
2022/05/24 07:13:22;;;;;;;27.07;24.43;;;17.00;99.90;;;;;;6197373;23;20413;-82
2022/05/24 07:15:51;;;;;;;25.33;23.03;;;17.10;99.90;;;;;;6197441;23;20417;-82
2022/05/24 07:18:20;;;;;;;25.63;23.37;;;17.20;99.90;;;;;;6197794;23;20445;-82
2022/05/24 07:20:48;;;;;;;26.00;23.60;;;17.20;99.90;;;;;;6199929;23;20455;-81
2022/05/24 07:23:18;;;;;;;27.17;24.67;;;17.20;99.90;;;;;;6202280;23;20438;-82
2022/05/24 07:25:48;;;;;;;26.27;23.50;;;17.20;99.90;;;;;;6234368;23;20443;-81
2022/05/24 07:28:24;;;;;;;22.90;20.63;;;17.30;99.90;;;;;;6209464;23;20392;-81
2022/05/24 07:30:52;;;;;;;24.50;22.30;;;17.30;99.90;;;;;;6246677;23;20369;-83
2022/05/24 07:33:20;;;;;;;23.57;21.47;;;17.30;99.90;;;;;;6202028;23;20420;-82
2022/05/24 07:35:49;;;;;;;24.07;21.80;;;17.30;99.90;;;;;;6237412;23;20445;-82
2022/05/24 07:38:17;;;;;;;23.20;20.93;;;17.30;99.90;;;;;;6199976;23;20465;-82
2022/05/24 07:46:32;;;;;;;25.17;23.07;;;17.20;99.90;;;;;;6198819;23;20461;-81
2022/05/24 07:49:01;;;;;;;25.83;23.33;;;17.10;99.90;;;;;;6200149;23;20400;-82
2022/05/24 07:51:30;;;;;;;25.00;22.70;;;17.10;99.90;;;;;;6198390;23;20385;-82
2022/05/24 07:53:58;;;;;;;25.30;23.00;;;17.10;99.90;;;;;;6225043;23;20442;-83
2022/05/24 07:56:26;;;;;;;23.70;21.57;;;17.00;99.90;;;;;;6198223;23;20418;-83
2022/05/24 07:58:56;;;;;;;25.40;22.80;;;17.00;99.90;;;;;;6235569;23;20403;-82
2022/05/24 08:01:24;;;;;;;25.10;22.80;;;17.00;99.90;;;;;;6233805;23;20792;-82
2022/05/24 08:03:53;;;;;;;25.57;23.27;;;17.00;99.90;;;;;;6197713;23;20435;-83
2022/05/24 08:06:21;;;;;;;23.20;21.00;;;17.00;99.90;;;;;;6197219;23;20448;-83
2022/05/24 08:08:50;;;;;;;22.00;19.90;;;17.00;99.90;;;;;;6196693;23;20414;-82
2022/05/24 08:11:18;;;;;;;21.90;20.00;;;17.00;99.90;;;;;;6233203;23;20405;-81
2022/05/24 08:13:46;;;;;;;22.10;20.00;;;17.00;99.90;;;;;;6222446;23;20425;-82
2022/05/24 08:16:16;;;;;;;21.70;19.70;;;17.00;99.90;;;;;;6196714;23;20397;-82
2022/05/24 08:18:45;;;;;;;21.30;19.33;;;17.00;99.90;;;;;;6196103;23;20480;-81
2022/05/24 08:21:13;;;;;;;22.43;20.37;;;16.90;99.90;;;;;;6193944;23;20397;-83
2022/05/24 08:23:42;;;;;;;22.73;20.73;;;16.90;99.90;;;;;;6193807;23;20417;-83
2022/05/24 08:26:10;;;;;;;24.40;22.20;;;16.90;99.90;;;;;;6230794;23;20442;-82
2022/05/24 08:28:38;;;;;;;22.87;20.67;;;16.90;99.90;;;;;;6195403;23;20465;-82
2022/05/24 08:31:08;;;;;;;23.03;20.63;;;16.80;99.90;;;;;;6196255;23;20487;-82
2022/05/24 08:33:38;;;;;;;21.60;19.37;;;16.80;99.90;;;;;;6196384;23;20401;-83
2022/05/24 08:36:07;;;;;;;21.00;19.07;;;16.80;99.90;;;;;;6195388;23;20389;-82
2022/05/24 08:38:35;;;;;;;19.27;17.70;;;16.70;99.90;;;;;;6197257;23;20454;-82
2022/05/24 08:41:07;;;;;;;20.20;18.50;;;16.60;99.90;;;;;;6196352;23;20400;-83
2022/05/24 08:43:50;;;;;;;21.47;19.57;;;16.50;99.90;;;;;;6198383;23;20500;-81
2022/05/24 08:49:15;;;;;;;20.80;19.00;;;16.40;99.90;;;;;;6198362;23;20410;-82
2022/05/24 08:51:49;;;;;;;19.47;17.57;;;16.40;99.90;;;;;;6198990;23;20453;-82
2022/05/24 08:54:20;;;;;;;21.50;19.40;;;16.30;99.90;;;;;;6198085;23;20398;-83
2022/05/24 08:56:55;;;;;;;22.13;20.13;;;16.30;99.90;;;;;;6236575;23;20354;-82
2022/05/24 08:59:28;;;;;;;19.90;17.97;;;16.30;99.90;;;;;;6198136;23;20388;-82
2022/05/24 09:01:59;;;;;;;19.80;17.80;;;16.20;99.90;;;;;;6198700;23;20389;-83
2022/05/24 09:04:30;;;;;;;20.53;18.73;;;16.20;99.90;;;;;;6197354;23;20464;-82
2022/05/24 09:07:06;;;;;;;18.77;17.17;;;16.20;99.90;;;;;;6199542;23;20772;-84
2022/05/24 09:09:44;;;;;;;18.53;16.87;;;16.10;99.90;;;;;;6196413;23;20410;-83
2022/05/24 09:12:29;;;;;;;16.53;15.20;;;16.10;99.90;;;;;;6197212;23;20469;-83
2022/05/24 09:15:15;;;;;;;18.30;16.50;;;16.10;99.90;;;;;;6199513;23;20410;-83
2022/05/24 09:18:00;;;;;;;18.40;16.40;;;16.10;99.90;;;;;;6198190;23;20454;-83
2022/05/24 09:20:33;;;;;;;17.80;16.27;;;16.20;99.90;;;;;;6225510;23;20380;-83
2022/05/24 09:23:07;;;;;;;18.77;17.17;;;16.20;99.90;;;;;;6198595;23;20420;-83
2022/05/24 09:25:54;;;;;;;19.43;17.47;;;16.20;99.90;;;;;;6225980;23;20424;-83
2022/05/24 09:28:43;;;;;;;18.87;17.07;;;16.20;99.90;;;;;;6233543;23;20371;-83
2022/05/24 09:31:18;;;;;;;18.63;17.07;;;16.20;99.90;;;;;;6196648;23;20414;-83
2022/05/24 09:33:47;;;;;;;18.80;17.00;;;16.30;99.90;;;;;;6197572;23;20408;-83
2022/05/24 09:36:35;;;;;;;17.10;15.60;;;16.30;99.90;;;;;;6227486;23;20385;-82
2022/05/24 09:39:06;;;;;;;16.93;15.50;;;16.30;99.90;;;;;;6196383;23;20385;-83
2022/05/24 09:41:34;;;;;;;16.43;15.03;;;16.20;99.90;;;;;;6195409;23;20381;-83
2022/05/24 09:44:06;;;;;;;17.00;15.50;;;16.30;99.90;;;;;;6202742;23;20954;-82
2022/05/24 09:46:37;;;;;;;16.77;14.50;;;16.20;99.90;;;;;;6205936;23;20433;-83
2022/05/24 09:49:22;;;;;;;16.33;14.33;;;16.30;99.90;;;;;;6206992;23;20412;-83
2022/05/24 09:51:56;;;;;;;15.50;14.07;;;16.40;99.90;;;;;;6241720;23;20424;-83
2022/05/24 09:54:28;;;;;;;15.60;14.10;;;16.50;99.90;;;;;;6202705;23;20417;-84
2022/05/24 09:57:04;;;;;;;16.97;15.33;;;16.60;99.90;;;;;;6202437;23;20407;-83
2022/05/24 09:59:33;;;;;;;16.97;15.40;;;16.70;99.90;;;;;;6201181;23;20830;-83
2022/05/24 10:02:02;;;;;;;15.87;14.47;;;16.70;99.90;;;;;;6199274;23;20468;-84
2022/05/24 10:04:36;;;;;;;15.57;14.13;;;16.80;99.90;;;;;;6199306;23;20400;-83
2022/05/24 10:07:10;;;;;;;14.63;13.33;;;16.80;99.90;;;;;;6199454;23;20423;-83
2022/05/24 10:09:50;;;;;;;15.77;14.30;;;16.80;99.90;;;;;;6200697;23;20377;-83
2022/05/24 10:12:27;;;;;;;15.77;14.33;;;16.80;99.90;;;;;;6199405;23;20409;-82
2022/05/24 10:15:13;;;;;;;17.37;15.87;;;16.90;99.90;;;;;;6202830;23;20399;-83
2022/05/24 10:17:52;;;;;;;16.23;14.83;;;16.90;99.90;;;;;;6233415;23;20484;-83
2022/05/24 10:20:26;;;;;;;16.70;15.40;;;17.10;99.90;;;;;;6210150;23;20438;-83
2022/05/24 10:23:05;;;;;;;15.93;14.33;;;17.10;99.90;;;;;;6233591;23;20455;-84
2022/05/24 10:25:41;;;;;;;15.77;14.17;;;17.20;99.90;;;;;;6203347;23;20400;-83
2022/05/24 10:28:20;;;;;;;16.70;15.00;;;17.20;99.90;;;;;;6199068;23;20409;-83
2022/05/24 10:31:00;;;;;;;16.07;14.70;;;17.30;99.90;;;;;;6225720;23;20907;-81
2022/05/24 10:39:25;;;;;;;15.23;13.83;;;17.60;99.90;;;;;;6199876;23;20414;-83
2022/05/24 10:42:03;;;;;;;14.93;13.60;;;17.70;99.90;;;;;;6196960;23;20418;-83
2022/05/24 10:44:37;;;;;;;15.43;14.20;;;17.80;99.90;;;;;;6196438;23;20410;-83
2022/05/24 10:47:09;;;;;;;15.37;13.87;;;17.80;99.90;;;;;;6197453;23;20426;-84
2022/05/24 10:49:43;;;;;;;13.60;12.50;;;17.80;99.90;;;;;;6231563;23;20379;-84
2022/05/24 10:52:21;;;;;;;12.80;11.70;;;17.80;99.90;;;;;;6196409;23;20437;-83
2022/05/24 10:54:54;;;;;;;12.07;10.97;;;17.80;99.90;;;;;;6196055;23;20418;-85
2022/05/24 10:57:27;;;;;;;11.50;10.60;;;17.70;99.90;;;;;;6195595;23;20793;-83
2022/05/24 11:00:03;;;;;;;11.50;10.40;;;17.70;99.90;;;;;;6233091;23;20383;-82
2022/05/24 11:02:39;;;;;;;11.20;10.30;;;17.80;99.90;;;;;;6196226;23;20442;-83
2022/05/24 11:05:14;;;;;;;10.60;9.70;;;17.70;99.90;;;;;;6234252;23;20410;-84
2022/05/24 11:07:42;;;;;;;11.03;9.90;;;17.80;99.90;;;;;;6197811;23;20433;-83
2022/05/24 11:10:28;;;;;;;10.30;9.30;;;17.90;99.90;;;;;;6196802;23;20388;-82
2022/05/24 11:13:02;;;;;;;10.33;9.33;;;18.00;99.90;;;;;;6196789;23;20819;-84
2022/05/24 11:15:37;;;;;;;10.93;9.90;;;18.00;99.90;;;;;;6196654;23;20866;-83
2022/05/24 11:18:14;;;;;;;9.73;8.93;;;18.00;99.90;;;;;;6195570;23;20413;-84
2022/05/24 11:20:49;;;;;;;10.73;9.87;;;18.00;99.90;;;;;;6194638;23;20769;-84
2022/05/24 11:23:22;;;;;;;10.50;9.60;;;17.90;99.90;;;;;;6230847;23;20422;-83
2022/05/24 11:25:55;;;;;;;10.50;9.60;;;17.90;99.90;;;;;;6231208;23;20481;-83
2022/05/24 11:28:27;;;;;;;10.40;9.43;;;18.00;99.90;;;;;;6192089;23;20413;-83
2022/05/24 11:31:09;;;;;;;13.23;12.00;;;18.00;99.90;;;;;;6191560;23;20769;-83
2022/05/24 11:33:42;;;;;;;9.63;8.80;;;18.00;99.90;;;;;;6192854;23;20413;-84
2022/05/24 11:36:38;;;;;;;9.00;8.20;;;18.10;99.90;;;;;;6229617;23;20381;-83
2022/05/24 11:39:11;;;;;;;10.23;9.43;;;18.20;99.90;;;;;;6191828;23;20421;-83
2022/05/24 11:41:41;;;;;;;9.93;9.03;;;18.30;99.90;;;;;;6220639;23;20420;-83
2022/05/24 11:44:30;;;;;;;10.90;9.90;;;18.40;99.90;;;;;;6192723;23;20421;-83
2022/05/24 11:46:59;;;;;;;10.00;9.00;;;18.60;99.90;;;;;;6219218;23;20482;-82
2022/05/24 11:50:05;;;;;;;9.27;8.43;;;18.70;99.90;;;;;;6193558;23;20442;-83
2022/05/24 11:53:07;;;;;;;8.93;8.13;;;18.80;99.90;;;;;;6192976;23;20450;-84
2022/05/24 11:55:47;;;;;;;10.40;9.40;;;18.80;99.90;;;;;;6191261;23;20420;-84
2022/05/24 11:58:44;;;;;;;10.60;9.60;;;18.90;99.90;;;;;;6219412;23;20534;-83
2022/05/24 12:01:43;;;;;;;9.67;8.87;;;19.00;99.90;;;;;;6192933;23;20410;-83
2022/05/24 12:10:44;;;;;;;8.23;7.53;;;19.20;99.90;;;;;;6197822;23;20402;-83
2022/05/24 12:13:33;;;;;;;8.30;7.60;;;19.30;99.90;;;;;;6197428;23;20477;-84
2022/05/24 12:16:05;;;;;;;7.73;7.03;;;19.30;99.90;;;;;;6196809;23;20464;-82
2022/05/24 12:18:45;;;;;;;8.20;7.50;;;19.30;99.90;;;;;;6195261;23;20468;-83
2022/05/24 12:21:39;;;;;;;7.87;7.27;;;19.30;99.60;;;;;;6195898;23;20407;-82
2022/05/24 12:24:44;;;;;;;8.37;7.17;;;19.40;99.30;;;;;;6196052;23;20912;-83
2022/05/24 12:27:48;;;;;;;9.30;8.40;;;19.40;99.10;;;;;;6077773;23;20426;-83
2022/05/24 12:30:44;;;;;;;7.80;7.20;;;19.40;98.70;;;;;;6084948;23;20948;-83
2022/05/24 12:33:39;;;;;;;7.50;6.57;;;19.40;98.70;;;;;;6192773;23;20438;-83
2022/05/24 12:36:22;;;;;;;6.60;6.00;;;19.50;98.60;;;;;;6240091;23;20414;-81
2022/05/24 12:38:57;;;;;;;6.30;5.70;;;19.60;98.30;;;;;;6201779;23;20445;-82
2022/05/24 12:41:30;;;;;;;6.63;6.10;;;19.50;98.10;;;;;;6199334;23;20415;-82
2022/05/24 12:44:01;;;;;;;6.80;6.10;;;19.50;97.70;;;;;;6198583;23;20438;-83
2022/05/24 12:46:52;;;;;;;5.93;5.43;;;19.30;97.50;;;;;;6235309;23;20383;-82
2022/05/24 12:49:23;;;;;;;5.60;5.10;;;19.30;97.30;;;;;;6198876;23;20917;-82
2022/05/24 12:51:56;;;;;;;5.80;4.60;;;19.20;97.10;;;;;;6234413;23;20378;-82
2022/05/24 12:54:30;;;;;;;5.30;4.80;;;19.10;96.70;;;;;;6239573;23;20814;-82
2022/05/24 12:57:02;;;;;;;5.47;5.07;;;19.00;96.60;;;;;;6201435;23;20410;-83
2022/05/24 12:59:34;;;;;;;4.73;4.33;;;18.90;96.60;;;;;;6200698;23;20488;-82
2022/05/24 13:02:33;;;;;;;5.43;5.03;;;18.90;96.60;;;;;;6227079;23;20446;-82
2022/05/24 13:05:10;;;;;;;6.30;5.70;;;18.80;96.60;;;;;;6197989;23;20415;-81
2022/05/24 13:07:41;;;;;;;9.17;6.90;;;18.80;96.90;;;;;;6197266;23;20461;-82
2022/05/24 13:10:21;;;;;;;6.33;5.83;;;18.80;97.00;;;;;;6223750;23;20395;-81
2022/05/24 13:12:51;;;;;;;4.93;4.53;;;18.80;97.00;;;;;;6200380;23;20437;-81
2022/05/24 13:15:23;;;;;;;5.17;4.67;;;18.70;97.00;;;;;;6197891;23;20411;-82
2022/05/24 13:17:58;;;;;;;8.67;4.90;;;18.70;97.20;;;;;;6195417;23;20415;-83
2022/05/24 13:20:32;;;;;;;4.90;4.60;;;18.70;96.90;;;;;;6196749;23;20441;-82
2022/05/24 13:23:06;;;;;;;5.93;5.43;;;18.70;96.90;;;;;;6223376;23;20414;-82
2022/05/24 13:25:50;;;;;;;5.43;5.03;;;18.70;97.00;;;;;;6196469;23;20430;-82
2022/05/24 13:28:38;;;;;;;5.57;5.07;;;18.90;97.10;;;;;;6236098;23;20518;-82
2022/05/24 13:33:58;;;;;;;8.30;6.03;;;18.90;97.10;;;;;;6194592;23;20940;-82
2022/05/24 13:36:29;;;;;;;5.03;4.63;;;18.80;97.00;;;;;;6234239;23;20364;-82
2022/05/24 13:39:12;;;;;;;3.67;3.37;;;18.70;96.90;;;;;;6199842;23;20434;-82
2022/05/24 13:41:43;;;;;;;2.50;2.30;;;18.60;96.60;;;;;;6234946;23;20433;-83
2022/05/24 13:44:32;;;;;;;1.30;1.20;;;18.50;96.60;;;;;;6235610;23;20409;-82
2022/05/24 13:47:03;;;;;;;1.63;1.03;;;18.40;96.20;;;;;;6197159;23;20809;-82